createdAt,value
2019-05-02T00:01:28.568Z,80.50
2019-05-02T00:04:03.207Z,80.50
2019-05-02T00:06:42.914Z,80.40
2019-05-02T00:09:14.619Z,80.30
2019-05-02T00:11:58.520Z,80.50
2019-05-02T00:14:25.712Z,80.30
2019-05-02T00:17:00.146Z,80.30
2019-05-02T00:19:34.644Z,80.20
2019-05-02T00:22:12.200Z,80.00
2019-05-02T00:24:45.805Z,80.40
2019-05-02T00:27:20.934Z,80.00
2019-05-02T00:29:58.646Z,80.00
2019-05-02T00:32:31.286Z,79.80
2019-05-02T00:35:05.890Z,79.80
2019-05-02T00:37:40.100Z,79.70
2019-05-02T00:40:14.815Z,79.70
2019-05-02T00:42:53.375Z,79.80
2019-05-02T00:45:25.973Z,79.80
2019-05-02T00:48:11.432Z,80.00
2019-05-02T00:50:50.930Z,80.10
2019-05-02T00:53:24.685Z,81.10
2019-05-02T00:55:59.010Z,80.00
2019-05-02T00:58:33.829Z,80.00
2019-05-02T01:01:35.169Z,79.60
2019-05-02T01:04:27.677Z,79.40
2019-05-02T01:07:02.611Z,78.90
2019-05-02T01:09:37.382Z,78.40
2019-05-02T01:12:25.062Z,78.00
2019-05-02T01:14:48.827Z,77.60
2019-05-02T01:17:26.175Z,77.40
2019-05-02T01:19:59.514Z,77.30
2019-05-02T01:22:35.311Z,76.90
2019-05-02T01:25:15.062Z,76.70
2019-05-02T01:28:03.065Z,76.50
2019-05-02T01:30:52.445Z,75.80
2019-05-02T01:33:36.914Z,75.00
2019-05-02T01:36:26.138Z,74.50
2019-05-02T01:39:02.981Z,74.20
2019-05-02T01:41:36.484Z,73.80
2019-05-02T01:44:10.951Z,73.70
2019-05-02T01:46:44.997Z,73.30
2019-05-02T01:49:27.094Z,73.10
2019-05-02T01:52:03.479Z,72.80
2019-05-02T01:54:40.750Z,72.50
2019-05-02T01:57:30.353Z,72.00
2019-05-02T02:00:08.877Z,71.60
2019-05-02T02:02:40.363Z,71.90
2019-05-02T02:05:14.794Z,72.00
2019-05-02T02:07:50.735Z,71.80
2019-05-02T02:10:25.424Z,71.20
2019-05-02T02:13:04.924Z,70.50
2019-05-02T02:15:35.792Z,70.40
2019-05-02T02:18:10.523Z,70.00
2019-05-02T02:21:01.322Z,69.70
2019-05-02T02:24:07.064Z,69.30
2019-05-02T02:26:43.691Z,69.50
2019-05-02T02:29:17.706Z,69.00
2019-05-02T02:31:52.215Z,68.20
2019-05-02T02:34:32.155Z,68.30
2019-05-02T02:37:13.206Z,67.80
2019-05-02T02:39:40.675Z,67.30
2019-05-02T02:42:31.175Z,66.90
2019-05-02T02:45:06.307Z,66.40
2019-05-02T02:47:40.650Z,66.00
2019-05-02T02:50:15.215Z,65.50
2019-05-02T02:52:50.014Z,64.20
2019-05-02T02:55:25.166Z,63.90
2019-05-02T02:58:04.938Z,63.70
2019-05-02T03:00:35.473Z,63.80
2019-05-02T03:03:10.424Z,63.90
2019-05-02T03:05:45.191Z,63.40
2019-05-02T03:08:20.279Z,62.80
2019-05-02T03:10:54.464Z,61.70
2019-05-02T03:13:51.182Z,61.90
2019-05-02T03:16:18.558Z,61.80
2019-05-02T03:18:53.647Z,61.10
2019-05-02T03:21:28.741Z,61.30
2019-05-02T03:24:05.766Z,61.50
2019-05-02T03:26:42.350Z,61.60
2019-05-02T03:29:17.006Z,61.50
2019-05-02T03:32:11.798Z,61.20
2019-05-02T03:34:44.913Z,61.00
2019-05-02T03:37:10.803Z,60.70
2019-05-02T03:39:41.104Z,60.90
2019-05-02T03:42:16.094Z,60.10
2019-05-02T03:44:56.194Z,59.80
2019-05-02T03:47:26.693Z,59.60
2019-05-02T03:50:01.228Z,59.30
2019-05-02T03:52:36.655Z,59.20
2019-05-02T03:55:13.034Z,59.00
2019-05-02T03:57:47.682Z,59.00
2019-05-02T04:00:24.259Z,58.70
2019-05-02T04:03:00.520Z,58.60
2019-05-02T04:05:40.306Z,58.40
2019-05-02T04:08:20.932Z,58.50
2019-05-02T04:11:21.613Z,58.60
2019-05-02T04:14:14.765Z,58.50
2019-05-02T04:16:41.162Z,58.40
2019-05-02T04:19:16.544Z,58.50
2019-05-02T04:21:54.840Z,58.40
2019-05-02T04:24:28.042Z,58.30
2019-05-02T04:27:02.634Z,57.90
2019-05-02T04:29:37.199Z,57.70
2019-05-02T04:32:14.316Z,57.10
2019-05-02T04:34:54.367Z,57.20
2019-05-02T04:37:24.323Z,57.20
2019-05-02T04:40:02.986Z,57.40
2019-05-02T04:42:35.004Z,57.40
2019-05-02T04:45:21.863Z,57.60
2019-05-02T04:47:54.870Z,57.40
2019-05-02T04:50:25.403Z,57.90
2019-05-02T04:52:59.684Z,58.50
2019-05-02T04:55:34.822Z,58.80
2019-05-02T04:58:24.169Z,59.10
2019-05-02T05:00:53.520Z,59.40
2019-05-02T05:03:23.371Z,59.80
2019-05-02T05:05:59.405Z,60.20
2019-05-02T05:08:33.546Z,60.50
2019-05-02T05:11:08.112Z,60.70
2019-05-02T05:13:42.842Z,60.60
2019-05-02T05:16:18.600Z,60.80
2019-05-02T05:18:55.532Z,60.70
2019-05-02T05:21:30.031Z,60.80
2019-05-02T05:24:24.863Z,61.00
2019-05-02T05:27:00.105Z,61.20
2019-05-02T05:29:34.967Z,61.50
2019-05-02T05:32:10.221Z,61.70
2019-05-02T05:34:47.699Z,61.70
2019-05-02T05:37:22.217Z,61.70
2019-05-02T05:39:57.992Z,61.80
2019-05-02T05:42:33.368Z,61.90
2019-05-02T05:45:09.733Z,62.10
2019-05-02T05:47:44.425Z,62.40
2019-05-02T05:50:18.801Z,62.80
2019-05-02T05:52:53.002Z,62.20
2019-05-02T05:55:28.460Z,62.40
2019-05-02T05:58:12.302Z,62.20
2019-05-02T06:00:39.820Z,61.90
2019-05-02T06:03:14.908Z,62.20
2019-05-02T06:05:49.384Z,62.40
2019-05-02T06:08:24.041Z,61.90
2019-05-02T06:10:58.809Z,61.60
2019-05-02T06:13:33.495Z,61.60
2019-05-02T06:16:10.518Z,61.10
2019-05-02T06:18:45.269Z,60.90
2019-05-02T06:21:21.424Z,60.80
2019-05-02T06:23:55.669Z,60.90
2019-05-02T06:26:30.041Z,60.90
2019-05-02T06:29:04.878Z,60.80
2019-05-02T06:31:43.179Z,60.50
2019-05-02T06:34:15.436Z,60.20
2019-05-02T06:36:49.910Z,60.60
2019-05-02T06:39:27.108Z,60.90
2019-05-02T06:42:00.542Z,61.00
2019-05-02T06:44:35.165Z,60.70
2019-05-02T06:47:10.555Z,60.80
2019-05-02T06:49:45.236Z,61.00
2019-05-02T06:52:19.706Z,60.70
2019-05-02T06:54:54.146Z,60.70
2019-05-02T06:57:29.432Z,60.60
2019-05-02T07:00:10.068Z,60.50
2019-05-02T07:02:45.550Z,59.90
2019-05-02T07:05:27.161Z,59.60
2019-05-02T07:08:12.106Z,60.10
2019-05-02T07:10:50.013Z,60.30
2019-05-02T07:13:36.182Z,60.50
2019-05-02T07:16:49.498Z,60.50
2019-05-02T07:19:30.803Z,60.40
2019-05-02T07:22:04.946Z,60.70
2019-05-02T07:24:39.511Z,60.50
2019-05-02T07:27:14.316Z,60.30
2019-05-02T07:29:52.114Z,59.90
2019-05-02T07:32:26.768Z,59.90
2019-05-02T07:35:04.727Z,59.60
2019-05-02T07:37:39.368Z,59.60
2019-05-02T07:40:16.869Z,59.20
2019-05-02T07:42:50.482Z,59.30
2019-05-02T07:45:24.712Z,59.20
2019-05-02T07:48:01.465Z,59.70
2019-05-02T07:50:41.289Z,59.20
2019-05-02T07:53:14.315Z,59.50
2019-05-02T07:55:49.341Z,59.30
2019-05-02T07:58:23.564Z,59.50
2019-05-02T08:01:00.229Z,59.80
2019-05-02T08:03:34.874Z,59.90
2019-05-02T08:06:09.368Z,60.10
2019-05-02T08:08:44.280Z,60.20
2019-05-02T08:11:18.790Z,60.60
2019-05-02T08:13:55.509Z,60.50
2019-05-02T08:16:30.727Z,60.30
2019-05-02T08:19:05.380Z,60.30
2019-05-02T08:21:42.528Z,60.20
2019-05-02T08:24:16.967Z,60.80
2019-05-02T08:27:18.741Z,59.70
2019-05-02T08:29:53.724Z,59.60
2019-05-02T08:32:28.565Z,58.60
2019-05-02T08:35:05.931Z,58.70
2019-05-02T08:37:43.868Z,58.30
2019-05-02T08:40:18.716Z,58.60
2019-05-02T08:42:53.478Z,58.50
2019-05-02T08:45:33.115Z,58.60
2019-05-02T08:48:06.437Z,58.70
2019-05-02T08:50:43.989Z,58.60
2019-05-02T08:53:19.651Z,59.00
2019-05-02T08:55:54.305Z,58.40
2019-05-02T08:58:29.048Z,58.10
2019-05-02T09:01:03.712Z,58.00
2019-05-02T09:03:54.747Z,57.60
2019-05-02T09:06:17.063Z,57.40
2019-05-02T09:08:51.332Z,56.90
2019-05-02T09:11:26.455Z,56.50
2019-05-02T09:14:02.074Z,55.50
2019-05-02T09:16:36.615Z,55.50
2019-05-02T09:19:13.479Z,55.30
2019-05-02T09:21:52.144Z,55.10
2019-05-02T09:24:46.420Z,54.80
2019-05-02T09:27:28.377Z,54.20
2019-05-02T09:30:04.039Z,53.50
2019-05-02T09:32:38.530Z,53.20
2019-05-02T09:35:13.158Z,52.50
2019-05-02T09:37:47.667Z,52.50
2019-05-02T09:40:22.344Z,52.50
2019-05-02T09:43:01.773Z,52.20
2019-05-02T09:45:37.298Z,52.20
2019-05-02T09:48:09.432Z,51.60
2019-05-02T09:50:44.065Z,51.70
2019-05-02T09:53:20.499Z,51.20
2019-05-02T09:55:57.782Z,50.50
2019-05-02T09:58:32.048Z,50.70
2019-05-02T10:01:15.126Z,50.40
2019-05-02T10:03:51.849Z,50.20
2019-05-02T10:06:27.510Z,50.10
2019-05-02T10:09:02.752Z,50.10
2019-05-02T10:11:38.515Z,50.10
2019-05-02T10:14:13.133Z,49.80
2019-05-02T10:16:47.536Z,49.80
2019-05-02T10:19:25.742Z,49.10
2019-05-02T10:21:58.085Z,49.00
2019-05-02T10:24:32.584Z,49.30
2019-05-02T10:27:08.596Z,49.50
2019-05-02T10:30:15.846Z,49.10
2019-05-02T10:32:52.830Z,48.80
2019-05-02T10:35:36.657Z,48.20
2019-05-02T10:38:04.831Z,48.60
2019-05-02T10:40:39.703Z,48.60
2019-05-02T10:43:15.674Z,48.80
2019-05-02T10:45:56.500Z,49.00
2019-05-02T10:48:29.927Z,48.60
2019-05-02T10:51:25.635Z,48.50
2019-05-02T10:53:57.995Z,48.20
2019-05-02T10:56:32.709Z,48.00
2019-05-02T10:59:07.677Z,47.80
2019-05-02T11:01:58.695Z,47.80
2019-05-02T11:04:34.391Z,48.10
2019-05-02T11:07:08.829Z,48.90
2019-05-02T11:09:44.645Z,48.60
2019-05-02T11:12:40.728Z,48.40
2019-05-02T11:15:19.050Z,48.50
2019-05-02T11:17:53.662Z,48.10
2019-05-02T11:20:28.035Z,48.00
2019-05-02T11:23:02.714Z,48.00
2019-05-02T11:25:37.067Z,47.70
2019-05-02T11:28:12.420Z,47.70
2019-05-02T11:30:47.332Z,48.60
2019-05-02T11:33:22.943Z,48.90
2019-05-02T11:35:57.759Z,49.20
2019-05-02T11:38:32.476Z,49.40
2019-05-02T11:41:07.247Z,49.50
2019-05-02T11:43:44.846Z,49.60
2019-05-02T11:46:17.924Z,49.60
2019-05-02T11:48:56.246Z,49.60
2019-05-02T11:51:28.331Z,49.60
2019-05-02T11:54:05.224Z,49.60
2019-05-02T11:56:41.159Z,49.80
2019-05-02T11:59:15.007Z,49.90
2019-05-02T12:02:00.149Z,50.00
2019-05-02T12:04:34.947Z,50.20
2019-05-02T12:07:09.607Z,50.10
2019-05-02T12:09:51.017Z,50.30
2019-05-02T12:12:22.659Z,50.40
2019-05-02T12:14:57.109Z,50.30
2019-05-02T12:17:32.639Z,50.40
2019-05-02T12:20:08.407Z,51.60
2019-05-02T12:22:42.860Z,51.00
2019-05-02T12:25:17.612Z,51.30
2019-05-02T12:27:52.662Z,51.60
2019-05-02T12:30:28.983Z,52.00
2019-05-02T12:33:03.037Z,53.20
2019-05-02T12:35:37.687Z,53.30
2019-05-02T12:38:12.405Z,54.30
2019-05-02T12:40:47.118Z,54.90
2019-05-02T12:43:22.908Z,55.40
2019-05-02T12:45:57.702Z,55.80
2019-05-02T12:48:32.789Z,56.60
2019-05-02T12:51:07.357Z,57.10
2019-05-02T12:53:41.870Z,57.60
2019-05-02T12:56:16.011Z,57.90
2019-05-02T12:58:52.728Z,58.40
2019-05-02T13:01:26.673Z,58.70
2019-05-02T13:04:07.605Z,58.90
2019-05-02T13:06:42.619Z,59.10
2019-05-02T13:09:17.182Z,59.30
2019-05-02T13:12:04.044Z,59.40
2019-05-02T13:14:38.761Z,59.70
2019-05-02T13:17:13.343Z,59.70
2019-05-02T13:19:55.686Z,59.80
2019-05-02T13:23:01.558Z,60.10
2019-05-02T13:25:37.007Z,60.20
2019-05-02T13:28:12.305Z,60.20
2019-05-02T13:31:05.163Z,60.70
2019-05-02T13:34:01.829Z,60.80
2019-05-02T13:36:57.587Z,61.00
2019-05-02T13:39:56.773Z,61.00
2019-05-02T13:42:30.951Z,61.10
2019-05-02T13:45:41.841Z,61.30
2019-05-02T13:48:21.840Z,61.50
2019-05-02T13:50:56.585Z,61.70
2019-05-02T13:53:32.127Z,62.10
2019-05-02T13:56:23.467Z,62.10
2019-05-02T13:58:59.075Z,62.40
2019-05-02T14:01:33.806Z,62.40
2019-05-02T14:04:10.228Z,62.50
2019-05-02T14:06:44.243Z,62.70
2019-05-02T14:09:52.721Z,62.90
2019-05-02T14:12:55.080Z,63.10
2019-05-02T14:15:52.622Z,63.00
2019-05-02T14:18:28.859Z,63.20
2019-05-02T14:21:02.756Z,63.30
2019-05-02T14:23:39.127Z,63.40
2019-05-02T14:26:27.569Z,63.70
2019-05-02T14:28:53.262Z,63.80
2019-05-02T14:31:28.122Z,63.90
2019-05-02T14:34:33.265Z,64.10
2019-05-02T14:37:08.095Z,64.30
2019-05-02T14:39:42.841Z,64.30
2019-05-02T14:42:22.129Z,64.50
2019-05-02T14:45:05.388Z,64.80
2019-05-02T14:47:29.695Z,64.90
2019-05-02T14:50:05.187Z,65.20
2019-05-02T14:52:42.195Z,65.40
2019-05-02T14:55:16.986Z,65.40
2019-05-02T14:57:52.596Z,65.50
2019-05-02T15:00:31.598Z,65.80
2019-05-02T15:03:05.537Z,66.00
2019-05-02T15:05:44.701Z,66.20
2019-05-02T15:08:22.948Z,66.40
2019-05-02T15:10:57.380Z,66.40
2019-05-02T15:13:39.711Z,66.60
2019-05-02T15:16:10.533Z,66.70
2019-05-02T15:18:47.462Z,66.90
2019-05-02T15:21:22.801Z,67.00
2019-05-02T15:23:57.962Z,67.10
2019-05-02T15:26:33.324Z,67.30
2019-05-02T15:29:12.069Z,67.50
2019-05-02T15:31:53.563Z,67.50
2019-05-02T15:34:46.302Z,67.80
2019-05-02T15:37:17.012Z,68.00
2019-05-02T15:42:25.530Z,68.30
2019-05-02T15:45:01.951Z,68.40
2019-05-02T15:47:37.139Z,68.50
2019-05-02T15:50:14.778Z,68.50
2019-05-02T15:52:57.265Z,69.00
2019-05-02T15:55:32.423Z,69.00
2019-05-02T15:58:05.989Z,69.10
2019-05-02T16:00:43.069Z,69.00
2019-05-02T16:03:19.843Z,69.20
2019-05-02T16:05:53.929Z,69.20
2019-05-02T16:08:49.071Z,69.30
2019-05-02T16:11:24.428Z,69.40
2019-05-02T16:13:59.236Z,69.50
2019-05-02T16:16:36.596Z,69.70
2019-05-02T16:19:14.727Z,69.90
2019-05-02T16:21:52.650Z,70.10
2019-05-02T16:24:26.921Z,70.00
2019-05-02T16:27:01.598Z,70.00
2019-05-02T16:29:36.211Z,70.30
2019-05-02T16:32:35.745Z,70.30
2019-05-02T16:35:15.279Z,70.50
2019-05-02T16:37:51.083Z,70.40
2019-05-02T16:40:30.011Z,70.60
2019-05-02T16:42:58.729Z,70.70
2019-05-02T16:45:33.269Z,70.80
2019-05-02T16:48:07.662Z,70.90
2019-05-02T16:50:44.769Z,71.00
2019-05-02T16:53:22.636Z,71.10
2019-05-02T16:55:58.512Z,71.30
2019-05-02T16:58:31.920Z,71.20
2019-05-02T17:01:07.420Z,71.60
2019-05-02T17:03:42.400Z,71.60
2019-05-02T17:06:22.392Z,71.80
2019-05-02T17:09:02.349Z,72.80
2019-05-02T17:11:41.887Z,72.90
2019-05-02T17:14:15.815Z,72.10
2019-05-02T17:16:52.341Z,72.40
2019-05-02T17:19:26.320Z,72.50
2019-05-02T17:22:02.619Z,72.70
2019-05-02T17:24:37.414Z,72.80
2019-05-02T17:27:12.995Z,72.80
2019-05-02T17:29:47.556Z,72.90
2019-05-02T17:32:22.369Z,73.00
2019-05-02T17:34:56.732Z,73.10
2019-05-02T17:37:32.548Z,73.20
2019-05-02T17:40:07.626Z,73.20
2019-05-02T17:42:44.318Z,73.30
2019-05-02T17:45:20.384Z,73.20
2019-05-02T17:47:55.052Z,73.30
2019-05-02T17:50:38.084Z,73.20
2019-05-02T17:53:12.327Z,73.30
2019-05-02T17:55:46.765Z,73.20
2019-05-02T17:58:21.225Z,73.40
2019-05-02T18:01:00.034Z,73.50
2019-05-02T18:03:35.276Z,73.70
2019-05-02T18:06:12.584Z,73.50
2019-05-02T18:08:46.358Z,73.50
2019-05-02T18:11:22.328Z,73.40
2019-05-02T18:13:56.975Z,73.40
2019-05-02T18:16:32.612Z,73.40
2019-05-02T18:19:07.013Z,73.50
2019-05-02T18:21:41.963Z,73.50
2019-05-02T18:24:16.699Z,73.50
2019-05-02T18:26:51.702Z,73.60
2019-05-02T18:29:26.641Z,74.60
2019-05-02T18:32:03.777Z,73.80
2019-05-02T18:34:38.486Z,73.70
2019-05-02T18:37:12.742Z,73.70
2019-05-02T18:39:53.250Z,73.80
2019-05-02T18:42:25.460Z,73.80
2019-05-02T18:44:58.768Z,73.70
2019-05-02T18:47:33.591Z,73.90
2019-05-02T18:50:09.373Z,74.00
2019-05-02T18:52:48.140Z,74.10
2019-05-02T18:55:23.227Z,74.20
2019-05-02T18:57:57.057Z,74.20
2019-05-02T19:00:36.142Z,74.20
2019-05-02T19:03:12.188Z,74.30
2019-05-02T19:05:43.068Z,74.40
2019-05-02T19:08:28.267Z,74.60
2019-05-02T19:11:05.405Z,74.70
2019-05-02T19:13:30.716Z,74.60
2019-05-02T19:16:04.977Z,75.60
2019-05-02T19:18:39.612Z,74.70
2019-05-02T19:21:13.929Z,74.60
2019-05-02T19:23:48.594Z,74.70
2019-05-02T19:26:23.201Z,74.80
2019-05-02T19:29:08.438Z,74.80
2019-05-02T19:31:46.225Z,74.90
2019-05-02T19:34:22.764Z,74.90
2019-05-02T19:36:57.968Z,75.10
2019-05-02T19:39:32.220Z,75.30
2019-05-02T19:42:06.766Z,75.30
2019-05-02T19:44:42.076Z,75.40
2019-05-02T19:47:17.703Z,75.30
2019-05-02T19:49:54.265Z,75.30
2019-05-02T19:52:37.192Z,75.60
2019-05-02T19:55:04.302Z,76.50
2019-05-02T19:57:38.431Z,75.70
2019-05-02T20:00:12.629Z,75.70
2019-05-02T20:02:47.141Z,75.90
2019-05-02T20:05:25.535Z,75.80
2019-05-02T20:07:59.522Z,75.70
2019-05-02T20:10:33.925Z,75.80
2019-05-02T20:13:08.194Z,76.00
2019-05-02T20:15:46.606Z,76.00
2019-05-02T20:18:21.319Z,75.90
2019-05-02T20:21:11.737Z,76.00
2019-05-02T20:23:44.360Z,76.00
2019-05-02T20:26:18.885Z,76.00
2019-05-02T20:28:53.126Z,75.90
2019-05-02T20:31:27.352Z,76.00
2019-05-02T20:34:02.570Z,75.90
2019-05-02T20:36:37.273Z,76.10
2019-05-02T20:39:12.374Z,76.10
2019-05-02T20:41:48.075Z,76.20
2019-05-02T20:44:22.778Z,76.20
2019-05-02T20:46:57.159Z,76.20
2019-05-02T20:49:32.094Z,76.30
2019-05-02T20:52:06.542Z,76.40
2019-05-02T20:54:42.671Z,76.50
2019-05-02T20:57:17.997Z,76.90
2019-05-02T20:59:52.799Z,77.70
2019-05-02T21:02:26.986Z,77.00
2019-05-02T21:05:02.727Z,77.10
2019-05-02T21:07:53.111Z,77.10
2019-05-02T21:10:34.677Z,77.30
2019-05-02T21:13:09.337Z,77.10
2019-05-02T21:15:43.831Z,77.50
2019-05-02T21:18:18.201Z,77.50
2019-05-02T21:20:52.752Z,77.60
2019-05-02T21:23:35.530Z,77.70
2019-05-02T21:26:04.536Z,77.70
2019-05-02T21:28:38.891Z,77.70
2019-05-02T21:31:14.206Z,77.90
2019-05-02T21:33:48.719Z,78.50
2019-05-02T21:36:23.326Z,77.80
2019-05-02T21:38:57.393Z,78.00
2019-05-02T21:41:33.001Z,78.00
2019-05-02T21:44:07.713Z,78.10
2019-05-02T21:46:42.351Z,78.30
2019-05-02T21:49:18.739Z,78.30
2019-05-02T21:52:11.754Z,78.30
2019-05-02T21:55:12.254Z,78.40
2019-05-02T21:57:45.884Z,78.40
2019-05-02T22:00:35.663Z,78.40
2019-05-02T22:03:12.493Z,78.60
2019-05-02T22:05:46.310Z,78.50
2019-05-02T22:08:21.666Z,79.40
2019-05-02T22:10:56.476Z,78.50
2019-05-02T22:13:31.547Z,78.70
2019-05-02T22:16:05.981Z,78.90
2019-05-02T22:18:42.612Z,78.80
2019-05-02T22:21:16.796Z,78.70
2019-05-02T22:23:52.049Z,78.90
2019-05-02T22:26:27.780Z,78.90
2019-05-02T22:29:02.351Z,78.80
2019-05-02T22:31:37.143Z,78.80
2019-05-02T22:34:12.819Z,78.70
2019-05-02T22:36:47.779Z,78.40
2019-05-02T22:39:38.934Z,78.70
2019-05-02T22:42:13.168Z,78.60
2019-05-02T22:44:47.800Z,78.40
2019-05-02T22:47:22.725Z,78.70
2019-05-02T22:49:58.196Z,78.70
2019-05-02T22:52:32.666Z,78.80
2019-05-02T22:55:07.102Z,78.80
2019-05-02T22:57:42.080Z,78.90
2019-05-02T23:00:27.186Z,79.00
2019-05-02T23:03:01.836Z,78.90
2019-05-02T23:05:38.868Z,78.90
2019-05-02T23:08:13.342Z,78.90
2019-05-02T23:10:47.975Z,78.90
2019-05-02T23:13:24.562Z,78.90
2019-05-02T23:15:58.888Z,78.90
2019-05-02T23:18:33.501Z,79.20
2019-05-02T23:21:07.832Z,79.30
2019-05-02T23:23:43.393Z,79.40
2019-05-02T23:26:46.285Z,79.30
2019-05-02T23:29:22.548Z,79.50
2019-05-02T23:31:56.761Z,79.60
2019-05-02T23:34:32.391Z,79.60
2019-05-02T23:37:06.765Z,79.70
2019-05-02T23:39:41.769Z,79.80
2019-05-02T23:42:16.411Z,79.80
2019-05-02T23:45:11.941Z,80.10
2019-05-02T23:47:45.790Z,80.30
2019-05-02T23:50:20.114Z,80.50
2019-05-02T23:52:54.470Z,80.50
2019-05-02T23:55:28.824Z,80.70
2019-05-02T23:58:03.084Z,80.70
